Time;durP1;ratioP1;P1;durP2;ratioP2;P2;SDS_P1;SDS_P2;PMS_P1;PMS_P2;Temp;Humidity;BMP_temperature;BMP_pressure;BME280_temperature;BME280_humidity;BME280_pressure;Samples;Min_cycle;Max_cycle;Signal;HPM_P1;HPM_P2
2022/05/03 00:01:12;;;;;;;24.55;18.48;;;9.40;39.00;;;;;;5010646;28;25141;-69
2022/05/03 00:03:51;;;;;;;28.42;19.10;;;9.30;40.20;;;;;;5021755;28;25082;-71
2022/05/03 00:06:28;;;;;;;24.98;18.20;;;9.20;41.90;;;;;;5023892;28;25050;-69
2022/05/03 00:09:03;;;;;;;26.63;19.02;;;9.20;43.70;;;;;;5031232;28;25082;-68
2022/05/03 00:11:31;;;;;;;26.00;19.20;;;9.20;45.20;;;;;;5029232;28;25067;-69
2022/05/03 00:14:20;;;;;;;25.20;17.40;;;9.20;45.80;;;;;;5025656;28;25080;-70
2022/05/03 00:16:49;;;;;;;23.10;18.55;;;9.20;46.50;;;;;;5025183;28;25051;-69
2022/05/03 00:19:15;;;;;;;26.23;19.50;;;9.20;45.10;;;;;;5022397;28;25088;-69
2022/05/03 00:21:41;;;;;;;26.15;19.92;;;9.20;45.90;;;;;;5023402;28;25068;-69
2022/05/03 00:24:07;;;;;;;29.58;20.23;;;9.20;45.70;;;;;;5026021;28;25076;-69
2022/05/03 00:26:34;;;;;;;26.63;20.60;;;9.30;45.20;;;;;;5024213;28;25077;-70
2022/05/03 00:29:00;;;;;;;25.65;19.05;;;9.30;44.10;;;;;;5024603;28;25065;-70
2022/05/03 00:31:27;;;;;;;27.48;19.88;;;9.20;45.00;;;;;;5010012;28;25076;-70
2022/05/03 00:33:53;;;;;;;29.38;21.00;;;9.20;45.40;;;;;;5008160;28;25060;-70
2022/05/03 00:36:19;;;;;;;29.58;21.75;;;9.20;46.60;;;;;;5009093;28;25119;-70
2022/05/03 00:38:45;;;;;;;28.98;21.05;;;9.10;48.20;;;;;;5009328;28;25054;-69
2022/05/03 00:41:17;;;;;;;28.88;21.15;;;9.20;49.50;;;;;;5009178;28;25113;-70
2022/05/03 00:44:01;;;;;;;28.23;19.70;;;9.10;50.70;;;;;;5009540;28;25063;-69
2022/05/03 00:46:31;;;;;;;30.08;21.98;;;9.10;52.10;;;;;;5009161;28;25078;-68
2022/05/03 00:49:27;;;;;;;30.15;22.27;;;9.10;52.80;;;;;;5009288;28;25141;-69
2022/05/03 00:52:29;;;;;;;32.35;22.50;;;9.10;54.00;;;;;;5010390;28;25064;-70
2022/05/03 00:55:00;;;;;;;30.40;22.92;;;9.10;54.90;;;;;;4989706;28;25072;-69
2022/05/03 00:57:56;;;;;;;30.15;22.63;;;9.10;53.60;;;;;;5004551;28;25070;-70
2022/05/03 01:00:25;;;;;;;30.88;22.70;;;9.00;55.70;;;;;;5008195;28;25087;-68
2022/05/03 01:03:14;;;;;;;36.67;23.88;;;9.00;58.20;;;;;;5009011;28;25065;-69
2022/05/03 01:05:49;;;;;;;33.08;23.58;;;8.90;60.80;;;;;;5010078;28;25059;-68
2022/05/03 01:08:36;;;;;;;35.97;25.00;;;8.90;63.40;;;;;;5008489;28;25108;-69
2022/05/03 01:11:16;;;;;;;34.38;23.60;;;8.90;64.80;;;;;;5006980;28;25065;-70
2022/05/03 01:13:50;;;;;;;35.13;23.70;;;8.80;69.20;;;;;;5007621;28;25099;-69
2022/05/03 01:16:31;;;;;;;36.80;25.17;;;8.90;71.20;;;;;;5007211;28;25078;-69
2022/05/03 01:19:32;;;;;;;38.40;24.75;;;8.80;73.10;;;;;;5006669;28;25082;-69
2022/05/03 01:22:32;;;;;;;38.10;25.58;;;8.80;74.20;;;;;;5008838;28;25128;-69
2022/05/03 01:25:07;;;;;;;39.10;26.90;;;8.80;75.80;;;;;;5009260;28;25063;-69
2022/05/03 01:28:00;;;;;;;41.38;26.85;;;8.80;77.90;;;;;;5009218;28;25137;-70
2022/05/03 01:30:29;;;;;;;41.40;26.90;;;8.70;79.60;;;;;;5011550;28;25071;-69
2022/05/03 01:33:07;;;;;;;39.05;26.63;;;8.80;79.50;;;;;;5008731;28;25129;-69
2022/05/03 01:35:39;;;;;;;35.88;26.65;;;8.80;79.30;;;;;;5011324;28;25088;-71
2022/05/03 01:38:09;;;;;;;38.33;28.02;;;8.80;80.00;;;;;;5012660;28;25060;-69
2022/05/03 01:40:56;;;;;;;41.22;27.05;;;8.80;79.50;;;;;;5014629;28;25151;-68
2022/05/03 01:43:48;;;;;;;36.40;25.88;;;8.80;80.10;;;;;;5024294;28;25091;-69
2022/05/03 01:46:23;;;;;;;40.97;28.20;;;8.80;80.30;;;;;;5026640;28;25050;-70
2022/05/03 01:52:12;;;;;;;40.80;29.25;;;8.70;87.10;;;;;;5005406;28;25058;-71
2022/05/03 01:55:03;;;;;;;42.70;29.73;;;8.60;90.90;;;;;;5005251;28;25080;-70
2022/05/03 01:57:59;;;;;;;43.63;30.00;;;8.60;92.60;;;;;;5017846;28;25087;-69
2022/05/03 02:00:25;;;;;;;44.58;31.70;;;8.50;94.20;;;;;;5005933;28;25088;-69
2022/05/03 02:03:03;;;;;;;47.45;32.75;;;8.50;95.30;;;;;;5006612;28;25061;-69
2022/05/03 02:05:52;;;;;;;57.17;37.08;;;8.50;96.90;;;;;;5008948;28;25080;-69
2022/05/03 02:08:23;;;;;;;59.20;37.92;;;8.50;98.90;;;;;;5006229;28;25056;-69
2022/05/03 02:11:15;;;;;;;51.95;36.90;;;8.50;99.90;;;;;;5005331;28;25195;-69
2022/05/03 02:16:58;;;;;;;53.88;36.63;;;8.50;99.90;;;;;;5009496;28;25081;-70
2022/05/03 02:19:44;;;;;;;56.97;38.92;;;8.50;99.90;;;;;;5005327;28;25086;-71
2022/05/03 02:22:30;;;;;;;55.17;37.65;;;8.50;99.90;;;;;;5003304;28;25077;-69
2022/05/03 02:25:36;;;;;;;53.60;38.15;;;8.50;99.90;;;;;;5004185;28;25055;-70
2022/05/03 02:28:17;;;;;;;57.95;39.50;;;8.50;99.90;;;;;;5004750;28;25059;-70
2022/05/03 02:30:46;;;;;;;59.80;40.00;;;8.50;99.90;;;;;;5007303;28;25072;-69
2022/05/03 02:33:27;;;;;;;57.38;38.30;;;8.50;99.90;;;;;;5005396;28;25091;-69
2022/05/03 02:35:58;;;;;;;57.13;36.92;;;8.60;99.90;;;;;;5005871;28;25131;-69
2022/05/03 02:38:42;;;;;;;63.30;40.83;;;8.60;99.90;;;;;;5004703;28;25071;-69
2022/05/03 02:41:10;;;;;;;62.55;38.38;;;8.50;99.90;;;;;;5007737;28;25108;-69
2022/05/03 02:43:38;;;;;;;59.90;38.90;;;8.50;99.90;;;;;;5005669;28;25106;-70
2022/05/03 02:46:33;;;;;;;58.70;38.75;;;8.50;99.90;;;;;;5007286;28;25077;-68
2022/05/03 02:49:04;;;;;;;64.00;39.85;;;8.50;99.90;;;;;;5002301;28;25142;-68
2022/05/03 02:51:51;;;;;;;63.83;40.10;;;8.40;99.90;;;;;;5007417;28;25070;-70
2022/05/03 02:54:32;;;;;;;62.78;42.53;;;8.40;99.90;;;;;;5003130;28;25133;-70
2022/05/03 02:57:30;;;;;;;66.20;42.20;;;8.30;99.90;;;;;;5005417;28;25045;-68
2022/05/03 03:03:11;;;;;;;62.40;40.53;;;8.30;99.90;;;;;;5015150;28;25077;-69
2022/05/03 03:05:44;;;;;;;66.57;40.88;;;8.20;99.90;;;;;;5009540;28;25104;-69
2022/05/03 03:08:13;;;;;;;;;;;8.20;99.90;;;;;;5007306;28;25053;-70
2022/05/03 03:10:52;;;;;;;65.63;41.33;;;8.30;99.90;;;;;;5008081;28;25068;-70
2022/05/03 03:13:20;;;;;;;63.58;42.10;;;8.30;99.90;;;;;;5005682;28;25056;-71
2022/05/03 03:15:47;;;;;;;74.10;43.47;;;8.30;99.90;;;;;;5006073;28;25092;-69
2022/05/03 03:18:15;;;;;;;73.03;43.38;;;8.20;99.90;;;;;;5006440;28;25051;-70
2022/05/03 03:20:56;;;;;;;76.10;45.58;;;8.20;99.90;;;;;;5007387;28;25074;-71
2022/05/03 03:23:28;;;;;;;71.10;44.00;;;8.20;99.90;;;;;;5012099;28;25057;-68
2022/05/03 03:25:54;;;;;;;72.65;45.13;;;8.20;99.90;;;;;;5013631;28;25151;-69
2022/05/03 03:28:22;;;;;;;76.07;47.33;;;8.20;99.90;;;;;;5013945;28;25087;-70
2022/05/03 03:30:52;;;;;;;70.53;45.45;;;8.20;99.90;;;;;;5025125;28;25091;-69
2022/05/03 03:33:19;;;;;;;68.57;44.63;;;8.20;99.90;;;;;;5032946;28;25063;-71
2022/05/03 03:35:46;;;;;;;81.40;47.45;;;8.20;99.90;;;;;;5033905;28;25061;-69
2022/05/03 03:38:15;;;;;;;80.70;49.15;;;8.30;99.90;;;;;;5032216;28;25061;-69
2022/05/03 03:40:45;;;;;;;78.97;48.22;;;8.30;99.90;;;;;;5023295;28;25064;-70
2022/05/03 03:43:11;;;;;;;87.25;53.15;;;8.30;99.90;;;;;;5008806;28;25076;-69
2022/05/03 03:45:37;;;;;;;93.13;54.55;;;8.30;99.90;;;;;;5007890;28;25088;-70
2022/05/03 03:48:04;;;;;;;85.32;53.50;;;8.20;99.90;;;;;;5005759;28;25149;-69
2022/05/03 03:50:31;;;;;;;93.25;50.83;;;8.20;99.90;;;;;;5006705;28;25120;-70
2022/05/03 03:52:57;;;;;;;94.35;52.97;;;8.20;99.90;;;;;;5006934;28;25066;-70
2022/05/03 03:55:24;;;;;;;92.30;54.03;;;8.20;99.90;;;;;;5008250;28;25052;-69
2022/05/03 03:57:51;;;;;;;86.30;51.65;;;8.20;99.90;;;;;;5006667;28;25117;-71
2022/05/03 04:00:16;;;;;;;89.75;51.92;;;8.20;99.90;;;;;;5005266;28;25056;-68
2022/05/03 04:02:46;;;;;;;93.05;51.90;;;8.20;99.90;;;;;;5006686;28;25059;-70
2022/05/03 04:05:19;;;;;;;87.32;53.22;;;8.20;99.90;;;;;;5011111;28;25145;-70
2022/05/03 04:07:45;;;;;;;93.20;54.10;;;8.20;99.90;;;;;;5009313;28;25064;-71
2022/05/03 04:10:10;;;;;;;93.78;52.63;;;8.10;99.90;;;;;;5008477;28;25084;-70
2022/05/03 04:12:36;;;;;;;90.95;52.55;;;8.10;99.90;;;;;;5009563;28;25064;-70
2022/05/03 04:15:02;;;;;;;89.13;52.45;;;8.20;99.90;;;;;;5020051;28;25076;-69
2022/05/03 04:17:28;;;;;;;95.97;53.90;;;8.20;99.90;;;;;;5019444;28;25059;-69
2022/05/03 04:19:53;;;;;;;97.47;53.67;;;8.20;99.90;;;;;;5005529;28;25052;-70
2022/05/03 04:22:33;;;;;;;96.75;53.30;;;8.10;99.90;;;;;;5012797;28;25088;-69
2022/05/03 04:25:00;;;;;;;95.18;53.30;;;8.10;99.90;;;;;;5012475;28;25063;-70
2022/05/03 04:27:28;;;;;;;83.22;50.00;;;8.10;99.90;;;;;;5017278;28;25056;-69
2022/05/03 04:29:55;;;;;;;90.43;52.47;;;8.20;99.90;;;;;;5018812;28;25057;-69
2022/05/03 04:32:22;;;;;;;87.63;50.55;;;8.20;99.90;;;;;;5023486;28;25097;-68
2022/05/03 04:34:48;;;;;;;83.18;49.20;;;8.20;99.90;;;;;;5027646;28;25057;-69
2022/05/03 04:37:14;;;;;;;81.78;48.63;;;8.30;99.90;;;;;;5031388;28;25075;-70
2022/05/03 04:39:39;;;;;;;79.68;48.42;;;8.40;99.90;;;;;;5030503;28;25057;-70
2022/05/03 04:42:06;;;;;;;78.55;48.15;;;8.50;99.90;;;;;;5031487;28;25068;-70
2022/05/03 04:44:31;;;;;;;78.75;48.08;;;8.60;99.90;;;;;;5032515;28;25072;-68
2022/05/03 04:46:57;;;;;;;75.45;47.47;;;8.60;99.90;;;;;;5037093;28;25064;-69
2022/05/03 04:49:22;;;;;;;77.72;44.72;;;8.60;99.90;;;;;;5037091;28;25069;-69
2022/05/03 04:51:48;;;;;;;82.53;48.70;;;8.60;99.90;;;;;;5032617;28;25060;-69
2022/05/03 04:54:14;;;;;;;73.25;46.75;;;8.60;99.90;;;;;;5030504;28;25079;-69
2022/05/03 04:56:47;;;;;;;76.47;47.20;;;8.50;99.90;;;;;;5027165;28;25066;-69
2022/05/03 04:59:13;;;;;;;80.97;48.28;;;8.50;99.90;;;;;;5022612;28;25071;-69
2022/05/03 05:01:38;;;;;;;83.20;50.10;;;8.50;99.90;;;;;;5016537;28;25089;-71
2022/05/03 05:04:04;;;;;;;76.03;46.53;;;8.60;99.90;;;;;;5009738;28;25099;-71
2022/05/03 05:06:29;;;;;;;73.95;46.97;;;8.60;99.90;;;;;;5009559;28;25094;-67
2022/05/03 05:08:55;;;;;;;79.82;46.00;;;8.60;99.90;;;;;;5007037;28;25156;-70
2022/05/03 05:11:20;;;;;;;68.38;44.33;;;8.70;99.90;;;;;;5006861;28;25056;-70
2022/05/03 05:13:46;;;;;;;72.20;44.17;;;8.80;99.90;;;;;;5006123;28;25118;-69
2022/05/03 05:16:12;;;;;;;68.18;42.63;;;8.80;99.90;;;;;;5005949;28;25142;-71
2022/05/03 05:18:38;;;;;;;64.65;40.63;;;8.90;99.90;;;;;;5003896;28;25108;-70
2022/05/03 05:21:03;;;;;;;59.63;39.88;;;8.90;99.90;;;;;;5006464;28;25111;-72
2022/05/03 05:23:29;;;;;;;60.58;37.80;;;8.90;99.90;;;;;;5007270;28;25071;-70
2022/05/03 05:25:55;;;;;;;58.45;38.40;;;8.90;99.90;;;;;;5005967;28;25098;-71
2022/05/03 05:28:22;;;;;;;61.33;37.65;;;9.00;99.90;;;;;;5005301;28;25075;-70
2022/05/03 05:30:54;;;;;;;53.10;34.55;;;9.20;99.90;;;;;;5005686;28;25063;-71
2022/05/03 05:33:20;;;;;;;56.88;34.80;;;9.20;99.90;;;;;;5006574;28;25070;-70
2022/05/03 05:35:46;;;;;;;49.30;33.17;;;9.10;99.90;;;;;;5006996;28;25056;-71
2022/05/03 05:38:16;;;;;;;51.10;32.00;;;9.20;99.90;;;;;;5009713;28;25165;-69
2022/05/03 05:40:42;;;;;;;45.30;32.67;;;9.40;99.90;;;;;;5004651;28;25048;-71
2022/05/03 05:43:08;;;;;;;40.65;28.88;;;9.50;99.90;;;;;;5005200;28;25149;-70
2022/05/03 05:45:33;;;;;;;36.70;26.23;;;9.50;95.70;;;;;;5006730;28;25100;-71
2022/05/03 05:47:59;;;;;;;33.72;24.77;;;9.50;91.10;;;;;;5005613;28;25157;-71
2022/05/03 05:50:25;;;;;;;34.20;24.15;;;9.50;83.50;;;;;;5006345;28;25096;-71
2022/05/03 05:55:36;;;;;;;33.13;23.50;;;9.80;71.60;;;;;;5005537;28;25129;-70
2022/05/03 05:58:03;;;;;;;34.83;23.70;;;9.80;66.00;;;;;;5007244;28;25091;-69
2022/05/03 06:00:28;;;;;;;30.40;21.75;;;9.90;58.40;;;;;;5008070;28;25055;-69
2022/05/03 06:02:54;;;;;;;28.38;19.70;;;10.00;53.20;;;;;;5007715;28;25066;-70
2022/05/03 06:05:20;;;;;;;28.20;19.15;;;10.10;48.60;;;;;;5003424;28;25062;-70
2022/05/03 06:07:45;;;;;;;28.25;18.73;;;10.10;39.80;;;;;;5004574;28;25083;-70
2022/05/03 06:10:11;;;;;;;27.17;18.85;;;10.20;36.30;;;;;;5004369;28;25062;-71
2022/05/03 06:12:36;;;;;;;31.25;18.98;;;10.40;33.50;;;;;;5010841;28;25055;-70
2022/05/03 06:15:02;;;;;;;25.75;18.27;;;10.50;26.80;;;;;;5006865;28;25103;-70
2022/05/03 06:17:28;;;;;;;24.80;17.02;;;10.70;26.40;;;;;;5006771;28;25086;-69
2022/05/03 06:19:53;;;;;;;30.50;16.52;;;10.90;22.90;;;;;;5006708;28;25087;-69
2022/05/03 06:22:20;;;;;;;22.98;17.38;;;11.10;19.80;;;;;;5005573;28;25077;-70
2022/05/03 06:24:47;;;;;;;25.23;17.38;;;11.10;17.40;;;;;;5005727;28;25071;-71
2022/05/03 06:27:16;;;;;;;19.88;15.63;;;11.30;16.80;;;;;;5001559;28;25068;-71
2022/05/03 06:29:42;;;;;;;23.95;16.85;;;11.20;13.10;;;;;;5000825;28;25083;-69
2022/05/03 06:32:10;;;;;;;25.20;18.05;;;11.30;14.90;;;;;;5002843;28;25050;-70
2022/05/03 06:34:37;;;;;;;24.90;17.67;;;11.20;13.70;;;;;;5002565;28;25047;-70
2022/05/03 06:37:03;;;;;;;26.30;17.98;;;11.30;17.50;;;;;;5001454;28;25080;-71
2022/05/03 06:39:29;;;;;;;28.80;19.40;;;11.50;16.30;;;;;;5001180;28;25060;-70
2022/05/03 06:41:55;;;;;;;32.25;18.88;;;11.60;14.00;;;;;;5001809;28;25069;-70
2022/05/03 06:44:20;;;;;;;25.92;18.88;;;11.70;14.50;;;;;;5000637;28;25077;-71
2022/05/03 06:46:45;;;;;;;24.70;18.33;;;11.80;14.50;;;;;;5004531;28;25069;-70
2022/05/03 06:49:11;;;;;;;28.27;18.27;;;11.70;13.50;;;;;;5009238;28;25062;-69
2022/05/03 06:51:38;;;;;;;22.80;17.15;;;11.70;14.40;;;;;;5004395;28;25134;-69
2022/05/03 06:54:03;;;;;;;27.65;19.85;;;11.80;13.20;;;;;;5005142;28;25077;-69
2022/05/03 06:56:35;;;;;;;25.75;18.15;;;11.80;11.30;;;;;;5003600;28;25070;-70
2022/05/03 06:59:06;;;;;;;24.08;17.10;;;11.90;13.90;;;;;;5006973;28;25123;-70
2022/05/03 07:01:32;;;;;;;26.20;17.60;;;12.10;12.50;;;;;;5007165;28;25088;-70
2022/05/03 07:03:58;;;;;;;26.95;19.65;;;12.00;13.50;;;;;;5004507;28;25060;-70
2022/05/03 07:06:25;;;;;;;25.95;19.13;;;12.00;14.90;;;;;;5002620;28;25083;-68
2022/05/03 07:08:51;;;;;;;27.35;20.10;;;12.10;11.90;;;;;;5002252;28;25207;-70
2022/05/03 07:11:17;;;;;;;23.05;17.30;;;12.20;13.00;;;;;;5001720;28;25059;-70
2022/05/03 07:13:44;;;;;;;24.02;17.52;;;12.50;12.80;;;;;;5002712;28;25078;-70
2022/05/03 07:16:09;;;;;;;32.60;18.02;;;12.70;7.90;;;;;;5002522;28;25073;-69
2022/05/03 07:24:04;;;;;;;20.55;16.45;;;12.70;3.50;;;;;;5002868;28;25055;-70
2022/05/03 07:26:30;;;;;;;28.95;18.02;;;12.70;5.60;;;;;;5001919;28;25068;-69
2022/05/03 07:28:56;;;;;;;26.02;18.27;;;12.50;4.90;;;;;;5003868;28;25072;-71
2022/05/03 07:31:22;;;;;;;23.67;19.08;;;12.70;8.00;;;;;;5005781;28;25069;-69
2022/05/03 07:33:48;;;;;;;30.70;21.70;;;13.00;5.70;;;;;;5002431;28;25082;-71
2022/05/03 07:36:15;;;;;;;26.92;20.48;;;13.10;6.50;;;;;;5002105;28;25076;-69
2022/05/03 07:38:41;;;;;;;25.70;19.80;;;13.10;4.20;;;;;;5002536;28;25120;-70
2022/05/03 07:41:07;;;;;;;29.38;21.30;;;12.90;4.00;;;;;;5007332;28;25081;-71
2022/05/03 07:43:34;;;;;;;32.58;25.00;;;13.00;5.00;;;;;;5009434;28;25183;-70
2022/05/03 07:46:00;;;;;;;36.28;27.45;;;13.00;8.30;;;;;;5005549;28;25059;-69
2022/05/03 07:48:26;;;;;;;35.75;24.65;;;13.10;9.20;;;;;;5005630;28;25054;-69
2022/05/03 07:50:52;;;;;;;31.23;24.17;;;13.50;8.20;;;;;;5007249;28;25068;-71
2022/05/03 07:53:17;;;;;;;35.53;25.45;;;13.60;5.30;;;;;;5006466;28;25096;-70
2022/05/03 07:55:50;;;;;;;32.92;23.63;;;13.30;4.90;;;;;;5004840;28;25051;-69
2022/05/03 07:58:18;;;;;;;36.00;25.25;;;13.30;5.30;;;;;;5005049;28;25071;-71
2022/05/03 08:00:43;;;;;;;38.97;24.63;;;13.20;5.20;;;;;;5004512;28;25104;-69
2022/05/03 08:03:09;;;;;;;36.90;26.17;;;13.30;6.30;;;;;;5005136;28;25106;-69
2022/05/03 08:05:35;;;;;;;35.83;25.58;;;13.30;7.00;;;;;;5005873;28;25142;-71
2022/05/03 08:08:00;;;;;;;37.28;26.45;;;13.30;8.10;;;;;;5006944;28;25100;-70
2022/05/03 08:10:26;;;;;;;40.22;26.95;;;13.40;7.60;;;;;;5006450;28;25070;-69
2022/05/03 08:12:51;;;;;;;31.77;24.50;;;13.80;6.10;;;;;;5004061;28;25064;-69
2022/05/03 08:15:19;;;;;;;29.98;23.17;;;14.30;5.20;;;;;;5006975;28;25132;-70
2022/05/03 08:17:45;;;;;;;32.63;24.33;;;14.50;1.00;;;;;;5024440;28;25051;-68
2022/05/03 08:20:11;;;;;;;37.22;25.40;;;14.20;1.40;;;;;;5031339;28;25081;-70
2022/05/03 08:22:36;;;;;;;30.83;22.70;;;13.90;3.20;;;;;;5015960;28;25146;-71
2022/05/03 08:25:02;;;;;;;32.60;24.25;;;14.40;4.50;;;;;;5008795;28;25054;-70
2022/05/03 08:27:30;;;;;;;30.50;23.40;;;14.60;1.00;;;;;;5005484;28;25066;-70
2022/05/03 08:29:56;;;;;;;30.80;23.02;;;14.80;1.40;;;;;;5004734;28;25078;-69
2022/05/03 08:32:21;;;;;;;36.40;25.52;;;15.20;1.00;;;;;;5001948;28;25159;-70
2022/05/03 08:34:47;;;;;;;36.28;28.27;;;15.40;1.00;;;;;;5003986;28;25055;-70
2022/05/03 08:42:46;;;;;;;32.42;23.15;;;14.60;1.00;;;;;;5011083;28;25061;-70
2022/05/03 08:45:11;;;;;;;31.77;22.17;;;14.80;1.00;;;;;;5003573;28;25082;-69
2022/05/03 08:47:38;;;;;;;30.10;23.55;;;15.10;1.00;;;;;;5004012;28;25115;-69
2022/05/03 08:50:10;;;;;;;33.70;24.80;;;15.50;1.00;;;;;;5001907;28;25052;-69
2022/05/03 08:52:39;;;;;;;27.23;21.25;;;15.20;1.00;;;;;;5000185;28;25060;-71
2022/05/03 08:55:05;;;;;;;24.33;18.95;;;15.30;1.00;;;;;;5000159;28;25062;-70
2022/05/03 08:57:31;;;;;;;24.17;18.48;;;15.40;1.00;;;;;;5001771;28;25064;-69
2022/05/03 08:59:57;;;;;;;24.60;17.45;;;14.90;1.00;;;;;;5001294;28;25051;-69
2022/05/03 09:02:24;;;;;;;28.27;21.67;;;14.60;1.00;;;;;;5000446;28;25089;-69
2022/05/03 09:04:49;;;;;;;26.15;18.48;;;14.30;1.10;;;;;;5001190;28;25077;-70
2022/05/03 09:07:23;;;;;;;25.33;17.75;;;14.50;1.00;;;;;;5006613;28;25148;-69
2022/05/03 09:09:50;;;;;;;29.55;20.52;;;14.60;1.00;;;;;;5005449;28;25084;-71
2022/05/03 09:12:28;;;;;;;31.98;22.75;;;14.80;1.00;;;;;;5004209;28;25136;-69
2022/05/03 09:15:04;;;;;;;28.05;21.33;;;14.80;1.00;;;;;;5003146;28;25078;-70
2022/05/03 09:17:44;;;;;;;31.40;21.27;;;14.60;1.60;;;;;;5002908;28;25223;-69
2022/05/03 09:26:25;;;;;;;29.08;22.05;;;14.20;3.60;;;;;;5001142;28;25104;-69
2022/05/03 09:29:14;;;;;;;35.42;23.95;;;14.60;3.90;;;;;;5005553;28;25065;-68
2022/05/03 09:31:47;;;;;;;30.02;23.13;;;14.60;4.30;;;;;;5005073;28;25088;-71
2022/05/03 09:34:26;;;;;;;28.13;21.85;;;15.00;4.20;;;;;;5004729;28;25087;-72
2022/05/03 09:36:54;;;;;;;30.05;21.20;;;15.30;1.00;;;;;;5004672;28;25086;-70
2022/05/03 09:39:22;;;;;;;30.67;23.95;;;15.60;1.00;;;;;;5003344;28;25152;-71
2022/05/03 09:42:13;;;;;;;30.98;22.42;;;15.30;1.00;;;;;;5003629;28;25169;-68
2022/05/03 09:44:52;;;;;;;26.30;21.65;;;15.30;1.20;;;;;;5004757;28;25085;-69
2022/05/03 09:47:20;;;;;;;29.83;22.55;;;15.50;1.00;;;;;;5003684;28;25067;-71
2022/05/03 09:49:45;;;;;;;32.05;23.00;;;15.10;1.00;;;;;;5003009;28;25068;-68
2022/05/03 09:52:29;;;;;;;28.70;23.58;;;15.10;2.90;;;;;;5004614;28;25061;-69
2022/05/03 09:55:00;;;;;;;34.05;23.00;;;15.10;2.40;;;;;;5002554;28;25082;-69
2022/05/03 09:57:27;;;;;;;27.20;23.33;;;15.00;2.60;;;;;;5004157;28;25058;-69
2022/05/03 09:59:57;;;;;;;27.63;21.98;;;15.10;1.60;;;;;;5003853;28;25067;-69
2022/05/03 10:02:25;;;;;;;31.60;26.02;;;15.50;1.00;;;;;;5003114;28;25140;-68
2022/05/03 10:04:56;;;;;;;30.13;24.05;;;15.60;1.00;;;;;;5004100;28;25057;-70
2022/05/03 10:07:22;;;;;;;30.52;25.38;;;15.60;1.00;;;;;;5003864;28;25051;-70
2022/05/03 10:09:49;;;;;;;29.27;24.23;;;15.60;1.00;;;;;;5003890;28;25064;-71
2022/05/03 10:12:16;;;;;;;30.20;24.33;;;15.50;1.30;;;;;;5002910;28;25155;-70
2022/05/03 10:14:43;;;;;;;40.08;22.33;;;15.30;2.30;;;;;;5001481;28;25054;-72
2022/05/03 10:22:54;;;;;;;23.80;18.83;;;15.30;5.00;;;;;;5005564;28;25068;-70
2022/05/03 10:25:56;;;;;;;23.35;18.70;;;15.40;1.10;;;;;;5005397;28;25082;-69
2022/05/03 10:28:22;;;;;;;25.50;20.53;;;15.70;1.00;;;;;;5004182;28;25092;-72
2022/05/03 10:31:07;;;;;;;24.17;20.55;;;16.00;1.00;;;;;;5006824;28;25068;-72
2022/05/03 10:33:32;;;;;;;28.00;21.80;;;15.50;1.00;;;;;;5020679;28;25066;-68
2022/05/03 10:36:00;;;;;;;21.50;17.95;;;15.20;1.80;;;;;;5023864;28;25073;-70
2022/05/03 10:38:37;;;;;;;25.48;18.50;;;15.30;1.40;;;;;;5027917;28;25154;-68
2022/05/03 10:41:08;;;;;;;23.52;18.10;;;16.20;1.00;;;;;;5027679;28;25070;-69
2022/05/03 10:43:35;;;;;;;19.75;16.23;;;17.10;1.00;;;;;;5027392;28;25053;-69
2022/05/03 10:46:11;;;;;;;23.80;19.35;;;17.10;1.00;;;;;;5023128;28;25076;-70
2022/05/03 10:48:37;;;;;;;25.60;19.65;;;17.30;1.00;;;;;;5007594;28;25098;-69
2022/05/03 10:51:07;;;;;;;24.48;18.25;;;17.10;1.00;;;;;;5010819;28;25050;-70
2022/05/03 10:53:43;;;;;;;22.75;17.73;;;16.50;1.00;;;;;;5012606;28;25067;-71
2022/05/03 10:56:20;;;;;;;26.10;21.23;;;16.30;1.00;;;;;;5006689;28;25085;-71
2022/05/03 10:59:06;;;;;;;25.52;19.40;;;15.70;1.00;;;;;;5006117;28;25076;-71
2022/05/03 11:01:53;;;;;;;21.15;17.52;;;15.40;1.00;;;;;;5022155;28;25151;-70
2022/05/03 11:04:20;;;;;;;24.00;19.08;;;15.80;1.00;;;;;;5017170;28;25067;-69
2022/05/03 11:06:49;;;;;;;27.73;18.60;;;16.40;1.00;;;;;;5006682;28;25106;-70
2022/05/03 11:09:25;;;;;;;23.83;19.02;;;17.20;1.00;;;;;;5011286;28;25066;-72
2022/05/03 11:11:52;;;;;;;24.38;19.35;;;18.20;1.00;;;;;;5007565;28;25071;-69
2022/05/03 11:14:18;;;;;;;25.60;18.20;;;17.40;1.00;;;;;;5007295;28;25082;-70
2022/05/03 11:17:06;;;;;;;26.58;18.02;;;16.80;1.00;;;;;;5006537;28;25175;-71
2022/05/03 11:19:50;;;;;;;20.25;15.38;;;17.10;1.00;;;;;;5006732;28;25065;-71
2022/05/03 11:22:21;;;;;;;18.83;14.20;;;18.10;1.00;;;;;;5005410;28;25081;-71
2022/05/03 11:24:50;;;;;;;23.45;18.85;;;18.90;1.00;;;;;;5006509;28;25090;-70
2022/05/03 11:27:16;;;;;;;25.40;18.98;;;18.60;1.00;;;;;;5008807;28;25121;-71
2022/05/03 11:29:43;;;;;;;25.27;17.98;;;17.30;1.00;;;;;;5004416;28;25052;-71
2022/05/03 11:32:10;;;;;;;21.20;16.73;;;17.00;1.00;;;;;;5006666;28;25059;-71
2022/05/03 11:34:36;;;;;;;27.15;17.30;;;16.70;1.00;;;;;;5005807;28;25104;-71
2022/05/03 11:37:03;;;;;;;26.33;17.85;;;16.10;1.00;;;;;;5006411;28;25057;-69
2022/05/03 11:39:29;;;;;;;29.77;20.75;;;16.20;1.00;;;;;;5007316;28;25058;-70
2022/05/03 11:41:55;;;;;;;23.83;17.85;;;16.00;1.00;;;;;;5007673;28;25052;-71
2022/05/03 11:44:21;;;;;;;27.40;18.17;;;15.90;1.00;;;;;;5007010;28;25058;-68
2022/05/03 11:46:48;;;;;;;26.30;18.38;;;16.00;1.00;;;;;;5008850;28;25106;-71
2022/05/03 11:49:16;;;;;;;24.85;17.00;;;15.90;1.00;;;;;;5009710;28;25069;-70
2022/05/03 11:57:31;;;;;;;36.00;24.48;;;17.40;1.00;;;;;;5007620;28;25076;-71
2022/05/03 11:59:58;;;;;;;30.23;23.10;;;16.30;1.00;;;;;;5007936;28;25148;-70
2022/05/03 12:02:34;;;;;;;36.20;23.13;;;15.90;1.00;;;;;;5009380;28;25075;-70
2022/05/03 12:05:11;;;;;;;34.47;22.15;;;15.50;1.00;;;;;;5008347;28;25087;-70
2022/05/03 12:07:38;;;;;;;29.90;20.48;;;15.40;1.00;;;;;;5007911;28;25152;-69
2022/05/03 12:10:14;;;;;;;30.02;19.02;;;15.60;1.00;;;;;;5009608;28;25073;-71
2022/05/03 12:12:45;;;;;;;33.78;22.50;;;15.60;1.00;;;;;;5005351;28;25140;-70
2022/05/03 12:15:19;;;;;;;33.45;21.48;;;15.60;1.00;;;;;;5005965;28;25067;-70
2022/05/03 12:18:09;;;;;;;29.27;19.58;;;15.40;1.00;;;;;;5006199;28;25091;-70
2022/05/03 12:20:44;;;;;;;30.25;20.60;;;15.50;1.00;;;;;;5006668;28;25143;-71
2022/05/03 12:23:10;;;;;;;32.72;21.65;;;15.70;1.00;;;;;;5004897;28;25112;-70
2022/05/03 12:25:37;;;;;;;30.48;19.85;;;15.60;1.00;;;;;;5009028;28;25091;-70
2022/05/03 12:28:04;;;;;;;32.45;20.48;;;15.60;1.00;;;;;;5011085;28;25064;-68
2022/05/03 12:30:31;;;;;;;34.95;20.23;;;15.40;1.00;;;;;;5008056;28;25072;-70
2022/05/03 12:33:07;;;;;;;32.38;19.50;;;15.50;1.00;;;;;;5007286;28;25105;-70
2022/05/03 12:35:35;;;;;;;29.77;20.02;;;15.50;1.00;;;;;;5008106;28;25091;-69
2022/05/03 12:38:08;;;;;;;36.08;21.00;;;15.70;1.00;;;;;;5008500;28;25062;-69
2022/05/03 12:40:43;;;;;;;31.98;19.38;;;15.60;1.00;;;;;;5007064;28;25152;-69
2022/05/03 12:43:12;;;;;;;33.85;21.65;;;15.60;1.00;;;;;;5007670;28;25048;-70
2022/05/03 12:45:39;;;;;;;44.10;25.73;;;15.60;1.00;;;;;;5006969;28;25050;-70
2022/05/03 12:48:06;;;;;;;47.03;30.52;;;15.50;1.00;;;;;;5006990;28;25082;-71
2022/05/03 12:50:32;;;;;;;46.22;28.25;;;15.50;2.40;;;;;;5006744;28;25055;-68
2022/05/03 12:52:57;;;;;;;49.90;30.00;;;15.50;3.70;;;;;;5008131;28;25057;-72
2022/05/03 12:55:23;;;;;;;60.22;35.00;;;15.60;3.10;;;;;;5007801;28;25059;-69
2022/05/03 13:00:36;;;;;;;48.28;30.05;;;15.60;8.20;;;;;;5005796;28;25101;-70
2022/05/03 13:03:03;;;;;;;54.50;31.88;;;15.80;6.90;;;;;;5005222;28;25077;-69
2022/05/03 13:05:29;;;;;;;49.60;30.48;;;15.70;6.30;;;;;;5007408;28;25057;-69
2022/05/03 13:07:55;;;;;;;46.42;30.10;;;16.00;6.60;;;;;;5020529;28;25075;-71
2022/05/03 13:10:20;;;;;;;42.50;28.35;;;15.80;5.90;;;;;;5011409;28;25099;-69
2022/05/03 13:12:46;;;;;;;46.55;30.75;;;15.90;9.10;;;;;;5008702;28;25172;-71
2022/05/03 13:15:11;;;;;;;46.55;28.20;;;15.60;9.10;;;;;;5007886;28;25086;-69
2022/05/03 13:17:37;;;;;;;46.22;30.05;;;15.40;11.00;;;;;;5007290;28;25077;-70
2022/05/03 13:20:04;;;;;;;43.50;28.65;;;15.30;9.60;;;;;;5005419;28;25141;-70
2022/05/03 13:22:31;;;;;;;45.33;28.17;;;15.10;12.90;;;;;;5007242;28;25132;-68
2022/05/03 13:24:57;;;;;;;47.67;29.73;;;15.10;12.40;;;;;;5006519;28;25061;-71
2022/05/03 13:27:22;;;;;;;47.58;29.05;;;14.90;14.00;;;;;;5004945;28;25064;-70
2022/05/03 13:29:48;;;;;;;40.65;27.25;;;14.90;15.60;;;;;;5004323;28;25089;-70
2022/05/03 13:32:13;;;;;;;44.08;28.50;;;15.00;16.50;;;;;;5004557;28;25076;-69
2022/05/03 13:34:39;;;;;;;44.38;27.27;;;14.80;18.20;;;;;;5003981;28;25129;-72
2022/05/03 13:42:33;;;;;;;30.55;21.00;;;14.70;21.20;;;;;;5010461;28;25077;-71